Time;durP1;ratioP1;P1;durP2;ratioP2;P2;SDS_P1;SDS_P2;PMS_P1;PMS_P2;Temp;Humidity;BMP_temperature;BMP_pressure;BME280_temperature;BME280_humidity;BME280_pressure;Samples;Min_cycle;Max_cycle;Signal;HPM_P1;HPM_P2
2022/05/25 00:00:41;;;;;;;12.83;10.43;;;10.30;99.90;;;;;;4982258;28;20054;-77
2022/05/25 00:03:07;;;;;;;13.63;10.73;;;10.30;99.90;;;;;;4998151;28;20037;-77
2022/05/25 00:05:34;;;;;;;13.20;10.47;;;10.30;99.90;;;;;;4998149;28;20049;-77
2022/05/25 00:08:00;;;;;;;12.30;10.33;;;10.30;99.90;;;;;;4981517;28;20121;-78
2022/05/25 00:10:27;;;;;;;13.17;10.27;;;10.30;99.90;;;;;;4989111;28;20145;-78
2022/05/25 00:12:52;;;;;;;13.37;10.80;;;10.30;99.90;;;;;;4969949;28;20069;-77
2022/05/25 00:15:18;;;;;;;13.13;10.60;;;10.30;99.90;;;;;;4981877;28;20080;-77
2022/05/25 00:17:44;;;;;;;14.43;11.53;;;10.30;99.90;;;;;;4980614;28;20388;-78
2022/05/25 00:20:11;;;;;;;13.30;11.30;;;10.30;99.90;;;;;;4997550;28;20045;-78
2022/05/25 00:22:43;;;;;;;11.13;10.03;;;10.30;99.90;;;;;;4986934;28;20045;-77
2022/05/25 00:25:12;;;;;;;12.80;10.23;;;10.30;99.90;;;;;;4982700;28;20042;-78
2022/05/25 00:27:39;;;;;;;16.30;10.47;;;10.30;99.90;;;;;;4997484;28;20056;-77
2022/05/25 00:30:06;;;;;;;15.77;11.10;;;10.20;99.90;;;;;;4972541;28;20046;-78
2022/05/25 00:32:33;;;;;;;12.67;10.77;;;10.20;99.90;;;;;;4980575;28;20049;-77
2022/05/25 00:34:58;;;;;;;11.23;10.13;;;10.20;99.90;;;;;;5021812;28;20069;-78
2022/05/25 00:37:24;;;;;;;15.57;11.10;;;10.20;99.90;;;;;;4994486;28;20050;-77
2022/05/25 00:39:50;;;;;;;13.90;10.97;;;10.30;99.90;;;;;;5002620;28;20341;-77
2022/05/25 00:42:16;;;;;;;12.40;10.27;;;10.20;99.90;;;;;;4996595;28;20050;-77
2022/05/25 00:44:43;;;;;;;11.83;10.70;;;10.20;99.90;;;;;;4981011;28;20053;-77
2022/05/25 00:47:10;;;;;;;11.37;10.10;;;10.20;99.90;;;;;;4964090;28;20054;-77
2022/05/25 00:49:37;;;;;;;10.47;9.37;;;10.20;99.90;;;;;;5013477;28;20088;-77
2022/05/25 00:52:05;;;;;;;11.03;9.73;;;10.20;99.90;;;;;;4983315;28;20409;-77
2022/05/25 00:54:34;;;;;;;11.27;9.30;;;10.10;99.90;;;;;;5000347;28;20527;-78
2022/05/25 00:57:05;;;;;;;14.07;10.60;;;10.10;99.90;;;;;;4988200;28;20041;-78
2022/05/25 00:59:37;;;;;;;11.97;10.47;;;10.10;99.90;;;;;;5000070;28;20088;-78
2022/05/25 01:02:04;;;;;;;13.07;10.03;;;10.10;99.90;;;;;;4999213;28;20068;-77
2022/05/25 01:04:30;;;;;;;11.63;9.80;;;10.10;99.90;;;;;;4982844;28;20459;-77
2022/05/25 01:07:08;;;;;;;10.80;9.70;;;10.10;99.90;;;;;;4981524;28;20049;-77
2022/05/25 01:09:45;;;;;;;10.60;9.50;;;10.10;99.90;;;;;;4997246;28;20046;-77
2022/05/25 01:12:23;;;;;;;11.93;9.03;;;10.10;99.90;;;;;;4970177;28;20125;-78
2022/05/25 01:15:01;;;;;;;12.57;9.63;;;10.10;99.90;;;;;;4983132;28;20470;-77
2022/05/25 01:17:40;;;;;;;11.93;9.10;;;10.10;99.90;;;;;;4966914;23;20079;-77
2022/05/25 01:20:11;;;;;;;11.43;9.20;;;10.10;99.90;;;;;;4971583;28;20043;-77
2022/05/25 01:23:09;;;;;;;11.80;9.67;;;10.10;99.90;;;;;;4939915;28;20335;-77
2022/05/25 01:26:12;;;;;;;10.27;9.17;;;10.10;99.90;;;;;;4943443;28;20129;-78
2022/05/25 01:28:55;;;;;;;10.93;9.63;;;10.10;99.90;;;;;;4910401;29;20461;-78
2022/05/25 01:31:29;;;;;;;11.07;9.60;;;10.10;99.90;;;;;;4941870;29;20047;-77
2022/05/25 01:34:02;;;;;;;10.37;8.93;;;10.10;99.90;;;;;;4936536;29;20510;-77
2022/05/25 01:36:35;;;;;;;10.03;9.03;;;10.00;99.90;;;;;;4925099;29;20074;-77
2022/05/25 01:39:05;;;;;;;14.85;9.15;;;10.00;99.90;;;;;;4954371;29;20067;-78
2022/05/25 01:41:39;;;;;;;11.83;10.10;;;10.00;99.90;;;;;;4940251;29;20545;-77
2022/05/25 01:44:09;;;;;;;10.95;9.18;;;10.00;99.90;;;;;;4923256;29;20044;-77
2022/05/25 01:46:41;;;;;;;10.97;9.23;;;10.00;99.90;;;;;;4909938;29;20426;-81
2022/05/25 01:49:11;;;;;;;10.97;9.87;;;10.00;99.90;;;;;;4928925;29;20039;-77
2022/05/25 01:51:42;;;;;;;13.33;11.13;;;9.90;99.90;;;;;;4937292;29;20051;-77
2022/05/25 01:54:12;;;;;;;13.50;9.90;;;9.90;99.90;;;;;;4912015;29;20094;-81
2022/05/25 01:56:40;;;;;;;12.17;9.17;;;9.90;99.90;;;;;;4937939;29;20054;-80
2022/05/25 01:59:09;;;;;;;15.20;10.87;;;9.90;99.90;;;;;;4915789;29;20498;-79
2022/05/25 02:01:47;;;;;;;14.13;10.40;;;9.90;99.90;;;;;;4922643;29;20156;-78
2022/05/25 02:04:22;;;;;;;11.60;10.40;;;9.90;99.90;;;;;;4923767;29;20056;-79
2022/05/25 02:07:14;;;;;;;11.40;10.13;;;9.90;99.90;;;;;;4941966;29;20058;-80
2022/05/25 02:09:56;;;;;;;11.77;10.57;;;9.90;99.90;;;;;;4923468;29;20333;-78
2022/05/25 02:12:33;;;;;;;12.90;10.70;;;9.80;99.90;;;;;;4909655;29;20040;-77
2022/05/25 02:15:03;;;;;;;16.23;11.73;;;9.80;99.90;;;;;;4926744;29;20040;-78
2022/05/25 02:17:39;;;;;;;15.60;12.10;;;9.80;99.90;;;;;;4910530;29;20044;-77
2022/05/25 02:20:10;;;;;;;13.37;11.87;;;9.80;99.90;;;;;;4916865;29;20043;-77
2022/05/25 02:22:39;;;;;;;15.93;11.53;;;9.90;99.90;;;;;;4944948;29;20102;-77
2022/05/25 02:25:11;;;;;;;14.23;11.70;;;9.90;99.90;;;;;;4946398;29;20394;-78
2022/05/25 02:27:41;;;;;;;12.83;11.53;;;9.90;99.90;;;;;;4939026;29;20054;-77
2022/05/25 02:30:13;;;;;;;15.03;12.57;;;9.90;99.90;;;;;;4925348;29;20057;-77
2022/05/25 02:32:43;;;;;;;15.97;12.83;;;9.90;99.90;;;;;;4953379;29;20086;-78
2022/05/25 02:35:11;;;;;;;14.33;12.83;;;9.90;99.90;;;;;;4934048;29;20055;-76
2022/05/25 02:37:38;;;;;;;17.60;13.30;;;9.90;99.90;;;;;;4920704;29;20052;-77
2022/05/25 02:40:08;;;;;;;14.37;12.47;;;9.90;99.90;;;;;;4944037;29;20484;-79
2022/05/25 02:42:36;;;;;;;15.50;13.23;;;9.90;99.90;;;;;;4927991;29;20047;-78
2022/05/25 02:45:03;;;;;;;17.20;13.53;;;9.90;99.90;;;;;;4910170;29;20113;-78
2022/05/25 02:47:30;;;;;;;16.93;14.17;;;9.80;99.90;;;;;;4937932;29;20051;-77
2022/05/25 02:49:57;;;;;;;18.13;14.13;;;9.80;99.90;;;;;;4919837;29;20040;-77
2022/05/25 02:52:23;;;;;;;16.63;14.87;;;9.90;99.90;;;;;;4944101;29;20055;-77
2022/05/25 02:54:48;;;;;;;21.20;14.80;;;9.80;99.90;;;;;;4916305;29;20047;-77
2022/05/25 02:57:14;;;;;;;18.00;14.73;;;9.90;99.90;;;;;;4923141;29;20465;-79
2022/05/25 02:59:40;;;;;;;18.27;14.00;;;9.90;99.90;;;;;;4922128;29;20082;-77
2022/05/25 03:02:05;;;;;;;17.57;14.40;;;9.90;99.90;;;;;;4927784;29;20074;-76
2022/05/25 03:04:32;;;;;;;16.60;14.90;;;9.90;99.90;;;;;;4943753;29;20090;-77
2022/05/25 03:06:59;;;;;;;18.33;15.07;;;9.90;99.90;;;;;;4927326;29;20387;-78
2022/05/25 03:09:24;;;;;;;17.97;14.87;;;9.90;99.90;;;;;;4909554;29;20043;-79
2022/05/25 03:11:50;;;;;;;19.47;14.93;;;9.90;99.90;;;;;;4923255;29;20051;-77
2022/05/25 03:14:16;;;;;;;19.17;15.20;;;9.90;99.90;;;;;;4914637;29;20119;-78
2022/05/25 03:16:42;;;;;;;21.17;15.10;;;9.90;99.90;;;;;;4926697;29;20079;-77
2022/05/25 03:19:08;;;;;;;19.33;15.57;;;9.80;99.90;;;;;;4958298;29;20035;-77
2022/05/25 03:21:34;;;;;;;17.63;14.53;;;9.80;99.90;;;;;;4943128;29;20081;-77
2022/05/25 03:24:01;;;;;;;20.63;16.00;;;9.80;99.90;;;;;;4914454;29;20048;-78
2022/05/25 03:26:27;;;;;;;20.80;15.90;;;9.80;99.90;;;;;;4926257;29;20450;-77
2022/05/25 03:28:52;;;;;;;20.57;16.30;;;9.80;99.90;;;;;;4943937;29;20039;-77
2022/05/25 03:31:18;;;;;;;20.57;16.50;;;9.80;99.90;;;;;;4925853;29;20055;-77
2022/05/25 03:33:44;;;;;;;20.60;16.53;;;9.80;99.90;;;;;;4944054;29;20051;-77
2022/05/25 03:36:09;;;;;;;24.10;16.70;;;9.80;99.90;;;;;;4957019;29;20054;-78
2022/05/25 03:38:36;;;;;;;21.33;16.80;;;9.70;99.90;;;;;;4918890;29;20074;-78
2022/05/25 03:41:04;;;;;;;23.17;18.00;;;9.80;99.90;;;;;;4932811;29;20797;-77
2022/05/25 03:43:32;;;;;;;20.77;16.50;;;9.70;99.90;;;;;;4909863;29;20051;-77
2022/05/25 03:45:58;;;;;;;23.90;17.00;;;9.70;99.90;;;;;;4944144;28;20054;-79
2022/05/25 03:48:24;;;;;;;20.40;16.93;;;9.70;99.90;;;;;;4938666;29;20110;-78
2022/05/25 03:50:49;;;;;;;21.03;17.13;;;9.70;99.90;;;;;;4957545;29;20500;-78
2022/05/25 03:53:15;;;;;;;24.30;17.90;;;9.70;99.90;;;;;;4915975;29;20090;-77
2022/05/25 03:55:42;;;;;;;24.23;16.70;;;9.70;99.90;;;;;;4902368;29;20082;-77
2022/05/25 03:58:09;;;;;;;21.40;17.57;;;9.70;99.90;;;;;;4945313;29;20066;-77
2022/05/25 04:00:35;;;;;;;21.10;16.83;;;9.70;99.90;;;;;;4933030;29;20059;-76
2022/05/25 04:03:02;;;;;;;21.73;17.37;;;9.70;99.90;;;;;;4943123;29;20516;-77
2022/05/25 04:05:29;;;;;;;22.97;17.30;;;9.70;99.90;;;;;;4953743;29;20122;-79
2022/05/25 04:07:56;;;;;;;22.20;17.50;;;9.70;99.90;;;;;;4926155;29;20051;-77
2022/05/25 04:10:22;;;;;;;25.37;17.83;;;9.70;99.90;;;;;;4930892;29;20083;-76
2022/05/25 04:12:49;;;;;;;23.90;17.93;;;9.80;99.90;;;;;;4914703;29;20048;-79
2022/05/25 04:15:18;;;;;;;19.70;16.50;;;9.80;99.90;;;;;;4919582;29;20043;-78
2022/05/25 04:17:44;;;;;;;22.07;17.60;;;9.80;99.90;;;;;;4929810;29;20127;-78
2022/05/25 04:20:11;;;;;;;25.97;18.10;;;9.80;99.90;;;;;;4942971;29;20047;-77
2022/05/25 04:22:37;;;;;;;24.37;17.50;;;9.80;99.90;;;;;;4942656;29;20075;-78
2022/05/25 04:25:04;;;;;;;23.40;17.23;;;9.90;99.90;;;;;;4937427;29;20134;-77
2022/05/25 04:27:30;;;;;;;21.03;17.50;;;9.90;99.90;;;;;;4922020;29;20098;-77
2022/05/25 04:29:56;;;;;;;24.20;17.47;;;9.90;99.90;;;;;;4945472;29;20047;-78
2022/05/25 04:32:23;;;;;;;21.47;16.60;;;10.00;99.90;;;;;;4920582;29;20054;-77
2022/05/25 04:34:49;;;;;;;19.43;17.13;;;10.00;99.90;;;;;;4952052;29;20058;-79
2022/05/25 04:39:59;;;;;;;22.05;17.58;;;10.00;99.90;;;;;;4929780;29;20031;-77
2022/05/25 04:42:29;;;;;;;26.77;17.60;;;10.10;99.90;;;;;;4919769;29;20414;-77
2022/05/25 04:44:59;;;;;;;21.10;17.07;;;10.10;99.90;;;;;;4920972;29;20095;-79
2022/05/25 04:47:27;;;;;;;24.60;18.00;;;10.20;99.90;;;;;;4939341;29;20066;-78
2022/05/25 04:49:53;;;;;;;20.77;17.30;;;10.20;99.90;;;;;;4925542;29;20051;-78
2022/05/25 04:52:18;;;;;;;23.07;18.07;;;10.20;99.90;;;;;;4918658;29;20108;-78
2022/05/25 04:54:44;;;;;;;26.93;17.80;;;10.20;99.90;;;;;;4926965;29;20047;-78
2022/05/25 04:57:23;;;;;;;21.20;16.97;;;10.30;99.90;;;;;;4932737;29;20055;-77
2022/05/25 04:59:50;;;;;;;21.03;15.97;;;10.40;99.90;;;;;;4922599;29;20051;-78
2022/05/25 05:02:15;;;;;;;22.83;16.97;;;10.60;99.90;;;;;;4933113;29;20047;-78
2022/05/25 05:04:43;;;;;;;21.33;15.90;;;10.70;99.90;;;;;;4950000;29;20065;-77
2022/05/25 05:07:09;;;;;;;18.87;16.53;;;10.70;99.90;;;;;;4909810;29;20062;-77
2022/05/25 05:09:36;;;;;;;21.83;16.40;;;10.70;99.90;;;;;;4943123;29;20047;-77
2022/05/25 05:12:02;;;;;;;19.87;16.77;;;10.70;99.90;;;;;;4925265;29;20047;-77
2022/05/25 05:14:28;;;;;;;22.77;17.30;;;10.70;99.90;;;;;;4909137;29;20057;-79
2022/05/25 05:16:55;;;;;;;19.83;17.33;;;10.80;99.90;;;;;;4938331;29;20122;-80
2022/05/25 05:19:28;;;;;;;19.20;16.87;;;10.80;99.90;;;;;;4942145;29;20086;-78
2022/05/25 05:22:01;;;;;;;24.77;17.50;;;10.80;99.90;;;;;;4941827;29;20051;-78
2022/05/25 05:24:29;;;;;;;19.30;16.53;;;10.90;99.90;;;;;;4952037;29;20047;-77
2022/05/25 05:26:55;;;;;;;21.90;16.97;;;11.00;99.90;;;;;;4925005;29;20043;-78
2022/05/25 05:29:24;;;;;;;20.23;15.37;;;11.00;99.90;;;;;;4910993;29;20043;-77
2022/05/25 05:31:50;;;;;;;20.90;16.47;;;11.10;99.90;;;;;;4954720;29;20047;-77
2022/05/25 05:34:16;;;;;;;21.70;16.30;;;11.10;99.90;;;;;;4954648;29;20071;-78
2022/05/25 05:36:46;;;;;;;20.03;16.40;;;11.20;99.90;;;;;;4906062;29;20412;-77
2022/05/25 05:39:15;;;;;;;19.57;16.10;;;11.20;99.90;;;;;;4958090;28;20039;-78
2022/05/25 05:41:46;;;;;;;28.13;15.40;;;11.30;99.90;;;;;;4920394;29;20061;-77
2022/05/25 05:44:16;;;;;;;18.30;14.30;;;11.40;99.90;;;;;;4915575;29;20094;-78
2022/05/25 05:46:42;;;;;;;19.50;14.77;;;11.50;99.90;;;;;;4937684;29;20067;-78
2022/05/25 05:49:08;;;;;;;19.80;13.93;;;11.60;99.90;;;;;;4961156;29;20049;-77
2022/05/25 05:51:35;;;;;;;22.37;14.77;;;11.70;99.90;;;;;;4942557;29;20553;-77
2022/05/25 05:54:02;;;;;;;17.67;13.53;;;11.80;99.90;;;;;;4942361;29;20062;-77
2022/05/25 05:56:32;;;;;;;17.87;13.53;;;11.90;99.90;;;;;;4962089;29;20043;-76
2022/05/25 05:58:58;;;;;;;21.40;13.40;;;12.00;99.90;;;;;;4957308;29;20466;-78
2022/05/25 06:01:24;;;;;;;15.93;13.10;;;12.10;99.90;;;;;;4946984;29;20043;-77
2022/05/25 06:03:49;;;;;;;18.87;12.47;;;12.20;99.90;;;;;;4919849;29;20146;-78
2022/05/25 06:06:15;;;;;;;15.57;13.10;;;12.30;99.90;;;;;;4945617;29;20097;-77
2022/05/25 06:08:46;;;;;;;20.40;12.77;;;12.40;99.90;;;;;;4954209;29;20053;-78
2022/05/25 06:11:12;;;;;;;20.17;12.63;;;12.40;99.90;;;;;;4952926;29;20047;-78
2022/05/25 06:13:39;;;;;;;20.53;12.40;;;12.50;99.90;;;;;;4943952;29;20059;-78
2022/05/25 06:21:33;;;;;;;21.52;13.40;;;12.60;99.90;;;;;;4942754;29;19919;-78
2022/05/25 06:23:59;;;;;;;19.40;12.80;;;12.60;99.90;;;;;;4942351;29;20047;-78
2022/05/25 06:26:30;;;;;;;21.67;13.73;;;12.60;99.90;;;;;;4948516;29;20062;-77
2022/05/25 06:28:57;;;;;;;17.67;12.73;;;12.60;99.90;;;;;;4957340;29;20526;-78
2022/05/25 06:31:23;;;;;;;19.60;14.27;;;12.70;99.90;;;;;;4941581;29;20059;-77
2022/05/25 06:33:49;;;;;;;17.53;13.20;;;12.80;99.90;;;;;;4913794;29;20051;-77
2022/05/25 06:36:17;;;;;;;20.97;15.10;;;12.80;99.90;;;;;;4920502;29;20040;-77
2022/05/25 06:38:43;;;;;;;21.10;14.00;;;12.90;99.90;;;;;;4954840;29;20125;-78
2022/05/25 06:41:09;;;;;;;18.27;13.93;;;12.90;99.90;;;;;;4958731;29;20425;-78
2022/05/25 06:43:35;;;;;;;18.93;14.33;;;13.00;99.90;;;;;;4956817;29;20059;-78
2022/05/25 06:46:03;;;;;;;16.70;13.83;;;13.00;99.90;;;;;;4943046;29;20048;-79
2022/05/25 06:48:29;;;;;;;17.90;14.73;;;13.10;99.90;;;;;;4916037;29;20086;-79
2022/05/25 06:50:54;;;;;;;24.20;14.93;;;13.40;99.90;;;;;;4897356;29;20043;-78
2022/05/25 06:53:20;;;;;;;18.77;13.53;;;13.60;99.90;;;;;;4943904;29;20055;-80
2022/05/25 06:55:46;;;;;;;17.83;13.03;;;13.70;99.90;;;;;;4918931;28;20071;-77
2022/05/25 06:58:12;;;;;;;19.27;13.50;;;13.70;99.90;;;;;;4961163;29;20130;-77
2022/05/25 07:00:38;;;;;;;20.53;14.23;;;13.60;99.90;;;;;;4960581;29;20520;-77
2022/05/25 07:03:06;;;;;;;17.70;13.53;;;13.60;99.90;;;;;;4938531;29;20043;-78
2022/05/25 07:05:33;;;;;;;16.87;12.20;;;13.60;99.90;;;;;;4915729;29;20047;-78
2022/05/25 07:07:59;;;;;;;18.37;13.93;;;13.70;99.90;;;;;;4944065;29;20076;-79
2022/05/25 07:10:25;;;;;;;17.83;12.60;;;13.80;99.90;;;;;;4912746;29;20107;-79
2022/05/25 07:12:51;;;;;;;17.80;12.77;;;13.80;99.90;;;;;;4954957;29;20079;-79
2022/05/25 07:15:17;;;;;;;14.90;12.63;;;13.90;99.90;;;;;;4925895;29;20082;-78
2022/05/25 07:17:42;;;;;;;17.97;12.43;;;13.90;99.90;;;;;;4911468;29;20673;-80
2022/05/25 07:20:10;;;;;;;16.83;12.80;;;14.00;99.90;;;;;;4906287;29;20101;-78
2022/05/25 07:22:38;;;;;;;19.63;11.60;;;14.00;99.90;;;;;;4935920;29;20422;-78
2022/05/25 07:25:04;;;;;;;12.43;10.30;;;14.00;99.90;;;;;;4908720;29;20138;-79
2022/05/25 07:27:30;;;;;;;15.00;10.03;;;14.10;99.90;;;;;;4909344;29;20044;-78
2022/05/25 07:29:56;;;;;;;17.03;9.33;;;14.10;99.90;;;;;;4927180;29;20051;-80
2022/05/25 07:32:22;;;;;;;12.77;9.30;;;14.10;99.90;;;;;;4943044;29;20048;-77
2022/05/25 07:34:54;;;;;;;16.83;9.33;;;14.20;99.90;;;;;;4905384;29;20050;-77
2022/05/25 07:37:23;;;;;;;12.83;8.77;;;14.20;99.90;;;;;;4956967;28;20043;-81
2022/05/25 07:39:53;;;;;;;16.47;8.57;;;14.30;99.90;;;;;;4902103;29;20069;-78
2022/05/25 07:42:20;;;;;;;14.77;9.07;;;14.40;99.90;;;;;;4916292;29;20044;-78
2022/05/25 07:44:50;;;;;;;9.70;7.80;;;14.50;99.90;;;;;;4946180;29;20071;-78
2022/05/25 07:47:16;;;;;;;12.07;8.23;;;14.50;99.90;;;;;;4959620;28;20074;-80
2022/05/25 07:49:42;;;;;;;13.53;8.33;;;14.50;99.90;;;;;;4930133;29;20051;-78
2022/05/25 07:52:09;;;;;;;11.57;7.13;;;14.70;99.90;;;;;;4927652;29;20097;-78
2022/05/25 07:54:36;;;;;;;12.60;6.90;;;14.70;99.90;;;;;;4916921;29;20043;-78
2022/05/25 07:57:03;;;;;;;11.40;6.83;;;14.90;99.90;;;;;;4915527;29;20073;-77
2022/05/25 07:59:28;;;;;;;9.07;6.47;;;15.00;99.90;;;;;;4904338;29;20054;-79
2022/05/25 08:07:30;;;;;;;8.97;5.03;;;15.30;99.90;;;;;;4954185;28;20040;-77
2022/05/25 08:10:02;;;;;;;7.13;5.47;;;15.40;99.90;;;;;;4927711;29;20039;-78
2022/05/25 08:12:30;;;;;;;6.43;4.53;;;15.40;99.90;;;;;;4920183;29;20043;-77
2022/05/25 08:14:56;;;;;;;7.40;4.97;;;15.40;99.90;;;;;;4914436;29;20108;-79
2022/05/25 08:17:21;;;;;;;9.87;5.27;;;15.40;99.90;;;;;;4929901;28;20052;-77
2022/05/25 08:19:47;;;;;;;7.63;5.03;;;15.50;99.90;;;;;;4897560;29;20553;-76
2022/05/25 08:22:13;;;;;;;6.40;5.03;;;15.50;99.90;;;;;;4913357;29;20074;-76
2022/05/25 08:24:39;;;;;;;8.30;5.10;;;15.60;99.90;;;;;;4918598;29;20043;-78
2022/05/25 08:27:06;;;;;;;10.57;5.50;;;15.70;99.90;;;;;;4918005;29;20537;-76
2022/05/25 08:29:32;;;;;;;7.67;5.33;;;15.70;99.90;;;;;;4937625;29;20102;-78
2022/05/25 08:31:58;;;;;;;6.90;5.17;;;15.70;99.90;;;;;;4935092;29;20047;-77
2022/05/25 08:34:25;;;;;;;6.77;5.10;;;15.80;99.90;;;;;;4935275;29;20059;-77
2022/05/25 08:36:51;;;;;;;8.00;5.07;;;15.90;99.90;;;;;;4917558;29;20155;-78
2022/05/25 08:39:17;;;;;;;5.70;4.20;;;16.00;99.90;;;;;;4903918;29;20053;-77
2022/05/25 08:41:44;;;;;;;8.57;4.60;;;16.00;99.90;;;;;;4915650;29;20059;-80
2022/05/25 08:44:12;;;;;;;9.57;5.70;;;16.00;99.90;;;;;;4934786;29;20510;-78
2022/05/25 08:46:39;;;;;;;6.47;4.67;;;16.10;99.90;;;;;;4935356;29;20094;-79
2022/05/25 08:49:12;;;;;;;9.20;4.93;;;16.20;99.90;;;;;;4902449;29;20063;-78
2022/05/25 08:51:43;;;;;;;10.25;4.60;;;16.50;99.90;;;;;;4902999;29;20189;-78
2022/05/25 08:54:09;;;;;;;6.40;4.33;;;16.70;99.90;;;;;;4906945;29;20956;-79
2022/05/25 08:56:39;;;;;;;6.20;4.17;;;16.80;99.90;;;;;;4884993;29;20093;-78
2022/05/25 08:59:10;;;;;;;7.10;4.33;;;17.10;99.90;;;;;;4903570;29;20047;-79
2022/05/25 09:01:43;;;;;;;9.27;4.30;;;17.30;99.90;;;;;;4914732;29;20059;-77
2022/05/25 09:04:19;;;;;;;4.05;3.45;;;17.40;99.90;;;;;;4923121;29;20090;-78
2022/05/25 09:06:54;;;;;;;8.40;4.20;;;17.40;99.90;;;;;;4914569;29;20051;-79
2022/05/25 09:09:30;;;;;;;9.43;5.17;;;17.30;99.90;;;;;;4914201;29;21526;-78
2022/05/25 09:11:58;;;;;;;5.90;3.30;;;17.30;99.90;;;;;;4898930;29;20043;-79
2022/05/25 09:14:29;;;;;;;4.00;2.90;;;17.40;99.90;;;;;;4914612;29;20054;-78
2022/05/25 09:17:00;;;;;;;4.97;2.93;;;17.50;99.90;;;;;;4901646;29;20039;-77
2022/05/25 09:19:28;;;;;;;5.37;2.80;;;17.60;99.90;;;;;;4915898;29;20613;-80
2022/05/25 09:21:56;;;;;;;5.90;3.20;;;17.70;99.90;;;;;;4927724;29;20637;-78
2022/05/25 09:24:24;;;;;;;5.20;2.60;;;17.70;99.90;;;;;;4905283;29;20035;-78
2022/05/25 09:26:50;;;;;;;4.53;2.40;;;17.60;99.90;;;;;;4887411;29;20146;-79
2022/05/25 09:29:16;;;;;;;10.67;3.33;;;17.60;99.90;;;;;;4913334;29;20039;-78
2022/05/25 09:31:45;;;;;;;6.77;3.17;;;17.60;99.90;;;;;;4950751;29;20466;-77
2022/05/25 09:34:22;;;;;;;6.07;3.00;;;17.70;99.90;;;;;;4898259;29;20070;-80
2022/05/25 09:36:54;;;;;;;4.37;2.73;;;17.80;99.90;;;;;;4919224;29;20131;-77
2022/05/25 09:39:24;;;;;;;4.70;2.93;;;17.70;99.90;;;;;;4911982;29;20114;-79
2022/05/25 09:41:54;;;;;;;6.87;3.40;;;17.60;99.90;;;;;;4929305;29;20047;-77
2022/05/25 09:44:20;;;;;;;5.10;3.23;;;17.70;99.90;;;;;;4908613;29;20043;-76
2022/05/25 09:46:50;;;;;;;4.83;3.70;;;17.90;99.90;;;;;;4931682;29;20052;-76
2022/05/25 09:49:29;;;;;;;9.37;3.80;;;18.00;99.90;;;;;;4937608;29;20561;-77
2022/05/25 09:51:57;;;;;;;4.97;2.77;;;18.10;99.90;;;;;;4905583;29;20062;-76
2022/05/25 09:54:28;;;;;;;6.67;3.50;;;18.20;99.90;;;;;;4914812;29;20043;-77
2022/05/25 09:56:58;;;;;;;8.57;3.60;;;18.10;99.90;;;;;;4938515;29;20050;-78
2022/05/25 09:59:28;;;;;;;5.20;3.30;;;17.90;99.90;;;;;;4934957;29;20044;-76
2022/05/25 10:01:55;;;;;;;5.50;3.90;;;17.80;99.90;;;;;;4931427;29;20106;-76
2022/05/25 10:04:52;;;;;;;5.13;3.70;;;17.70;99.90;;;;;;4928910;29;20047;-76
2022/05/25 10:07:21;;;;;;;6.50;3.80;;;17.60;99.90;;;;;;4920023;29;20058;-78
2022/05/25 10:09:49;;;;;;;5.60;3.40;;;17.80;99.90;;;;;;4926476;29;20138;-78
2022/05/25 10:12:26;;;;;;;6.67;3.67;;;17.80;99.90;;;;;;4932501;29;20094;-77
2022/05/25 10:14:58;;;;;;;7.60;3.90;;;17.80;99.90;;;;;;4915370;29;20058;-77
2022/05/25 10:17:36;;;;;;;5.77;3.80;;;17.80;99.90;;;;;;4930398;29;20043;-76
2022/05/25 10:20:17;;;;;;;8.87;4.00;;;17.80;99.90;;;;;;4909158;29;20036;-78
2022/05/25 10:22:47;;;;;;;5.00;3.43;;;17.90;99.90;;;;;;4902070;29;20134;-77
2022/05/25 10:25:25;;;;;;;8.27;4.13;;;17.90;99.90;;;;;;4928896;29;20050;-77
2022/05/25 10:27:52;;;;;;;6.47;3.93;;;18.10;99.90;;;;;;4949680;29;20054;-79
2022/05/25 10:38:48;;;;;;;5.63;3.90;;;17.60;99.90;;;;;;4928886;29;20167;-78
2022/05/25 10:44:09;;;;;;;5.97;3.27;;;17.50;99.90;;;;;;4921431;29;20044;-79
2022/05/25 10:46:39;;;;;;;7.20;3.07;;;17.80;99.90;;;;;;4926454;29;20083;-77
2022/05/25 10:49:11;;;;;;;4.47;2.70;;;18.20;99.90;;;;;;4929643;29;20056;-76
2022/05/25 10:51:42;;;;;;;5.03;3.20;;;18.50;99.90;;;;;;4913412;29;20062;-77
2022/05/25 10:57:18;;;;;;;4.83;2.63;;;18.80;99.90;;;;;;4935677;29;20119;-76
2022/05/25 10:59:50;;;;;;;5.33;2.60;;;19.20;99.90;;;;;;4913556;29;20498;-78
2022/05/25 11:02:26;;;;;;;5.57;2.47;;;19.30;99.90;;;;;;4925550;29;20138;-78
2022/05/25 11:05:09;;;;;;;4.17;1.70;;;19.20;99.30;;;;;;4932443;29;20327;-77
2022/05/25 11:07:37;;;;;;;4.20;1.77;;;19.20;99.20;;;;;;4938694;29;20510;-77
2022/05/25 11:10:37;;;;;;;3.83;1.80;;;19.30;97.60;;;;;;4925587;29;20053;-77
2022/05/25 11:13:30;;;;;;;5.73;1.83;;;19.50;98.40;;;;;;4889787;29;20074;-76
2022/05/25 11:16:04;;;;;;;5.80;1.57;;;19.90;95.70;;;;;;4913705;29;20051;-80
2022/05/25 11:18:48;;;;;;;8.90;1.90;;;20.00;94.00;;;;;;4912790;29;20063;-77
2022/05/25 11:21:26;;;;;;;6.85;2.25;;;20.00;94.20;;;;;;4905817;29;20051;-77
2022/05/25 11:24:15;;;;;;;4.90;2.10;;;20.10;93.80;;;;;;4955715;29;20497;-77
2022/05/25 11:27:03;;;;;;;5.00;1.90;;;20.00;94.60;;;;;;4939428;29;20063;-79
2022/05/25 11:29:45;;;;;;;7.77;1.97;;;19.80;92.00;;;;;;4920451;29;20074;-81
2022/05/25 11:32:20;;;;;;;4.63;2.73;;;19.80;91.80;;;;;;4938551;29;20103;-77
2022/05/25 11:35:04;;;;;;;6.33;3.20;;;19.70;92.80;;;;;;4905348;29;20059;-77
2022/05/25 11:37:47;;;;;;;5.78;3.40;;;19.50;93.60;;;;;;4949065;28;20044;-77
2022/05/25 11:40:38;;;;;;;6.70;3.50;;;19.10;94.50;;;;;;4938548;29;20170;-77
2022/05/25 11:43:28;;;;;;;6.60;3.60;;;18.70;95.40;;;;;;4934859;29;20079;-78
2022/05/25 11:45:58;;;;;;;6.67;3.83;;;18.50;95.70;;;;;;4959356;28;20047;-77
2022/05/25 11:48:38;;;;;;;7.83;3.20;;;18.30;97.00;;;;;;4899281;29;20043;-77
2022/05/25 11:51:17;;;;;;;7.93;3.60;;;18.20;97.00;;;;;;4912450;29;20417;-79
2022/05/25 11:54:09;;;;;;;5.60;3.33;;;18.10;97.30;;;;;;4934655;29;20078;-76
2022/05/25 11:56:57;;;;;;;7.70;3.43;;;17.90;97.40;;;;;;4933469;29;20356;-78
2022/05/25 12:00:04;;;;;;;5.23;3.10;;;17.80;98.80;;;;;;4940963;29;20043;-77
2022/05/25 12:02:49;;;;;;;;;;;17.60;98.90;;;;;;4935222;29;20051;-78
2022/05/25 12:05:23;;;;;;;9.27;4.60;;;17.30;99.70;;;;;;4940369;29;19977;-77
2022/05/25 12:08:03;;;;;;;8.63;5.53;;;17.10;99.90;;;;;;4950688;28;20051;-77
2022/05/25 12:10:34;;;;;;;12.13;7.00;;;16.80;99.90;;;;;;4933713;29;20103;-79
2022/05/25 12:13:09;;;;;;;10.90;7.57;;;16.40;99.90;;;;;;4908883;29;20050;-78
2022/05/25 12:15:47;;;;;;;11.60;8.13;;;16.10;99.90;;;;;;4921045;29;20089;-78
2022/05/25 12:18:22;;;;;;;8.03;7.07;;;15.90;99.90;;;;;;4942338;28;20039;-78
2022/05/25 12:20:53;;;;;;;10.77;7.30;;;16.10;99.90;;;;;;4898561;29;20047;-79
2022/05/25 12:23:23;;;;;;;8.40;7.20;;;16.50;99.90;;;;;;4914571;29;20129;-77
2022/05/25 12:25:52;;;;;;;9.10;6.80;;;17.00;99.90;;;;;;4915010;28;20036;-76
2022/05/25 12:28:22;;;;;;;8.23;5.70;;;17.60;99.90;;;;;;4936784;29;20102;-76
2022/05/25 12:30:48;;;;;;;6.87;5.57;;;17.80;99.90;;;;;;4956800;29;20421;-77
2022/05/25 12:33:21;;;;;;;7.03;5.73;;;17.90;99.90;;;;;;4949821;29;20119;-77
2022/05/25 12:35:47;;;;;;;9.63;5.67;;;18.10;99.90;;;;;;4920460;29;20047;-76
2022/05/25 12:38:13;;;;;;;9.43;5.43;;;18.20;99.90;;;;;;4899202;29;20065;-79
2022/05/25 12:40:45;;;;;;;8.23;4.87;;;18.20;99.90;;;;;;4908677;29;20509;-77
2022/05/25 12:43:47;;;;;;;7.57;4.30;;;18.40;99.90;;;;;;4917325;29;20042;-77
2022/05/25 12:49:08;;;;;;;5.30;1.90;;;18.40;99.90;;;;;;4936022;29;20078;-76
2022/05/25 12:51:38;;;;;;;5.80;1.80;;;18.00;99.90;;;;;;4896987;29;20564;-77
2022/05/25 12:54:18;;;;;;;4.87;1.83;;;17.70;99.90;;;;;;4918165;29;20039;-77
2022/05/25 12:56:44;;;;;;;5.87;1.73;;;17.50;99.90;;;;;;4932097;29;20675;-78
2022/05/25 12:59:12;;;;;;;6.67;2.00;;;17.40;99.90;;;;;;4930656;29;20513;-76
2022/05/25 13:01:42;;;;;;;6.10;1.70;;;17.40;99.90;;;;;;4939927;29;20047;-77
2022/05/25 13:04:43;;;;;;;5.50;2.67;;;17.40;99.90;;;;;;4936154;29;20142;-78
2022/05/25 13:07:21;;;;;;;7.30;1.90;;;17.40;99.90;;;;;;4926812;29;20055;-75
2022/05/25 13:09:48;;;;;;;12.23;2.30;;;17.50;99.90;;;;;;4948137;29;20107;-76
2022/05/25 13:12:44;;;;;;;13.80;1.83;;;17.60;99.90;;;;;;4935623;29;20405;-78
2022/05/25 13:15:31;;;;;;;4.87;1.60;;;17.60;99.90;;;;;;4910373;29;20040;-77
2022/05/25 13:17:58;;;;;;;9.00;1.67;;;17.60;99.90;;;;;;4917721;29;20046;-77
2022/05/25 13:20:58;;;;;;;9.37;1.63;;;17.80;99.90;;;;;;4941496;29;20445;-77
2022/05/25 13:24:01;;;;;;;10.23;1.80;;;18.30;99.90;;;;;;4869445;29;20049;-77
2022/05/25 13:26:41;;;;;;;4.30;1.47;;;18.50;99.90;;;;;;4918693;29;20090;-76